Sunday, May 29, 2016
05:48 UTC
  |  Log In   |  Register Free
Airport Search:

Foothills Regional Airport
(KMRN)

Foothills Regional Airport Diagram
No Airport Diagram Available

FAA data valid effective Mar 31 2016 - May 26 2016 (unless otherwise noted).

 
 
 
 
 
 
 
 
 
 
 
 
 
 
Current Aviation Weather for KMRN

Weather Summary


The most recent METAR observation for MRN was updated at: 12:55 UTC
METAR for KMRN is not available. Closest METAR is for KHKY
KMRN  (most recent observation was updatred at 29:05 UTC)
290530Z AUTO 32003KT 10SM -RA OVC120 19/18 A3020 RMK AO2 T01910176

KHKY  (11.8 nm NW)   (most recent observation was updated at 29:04 UTC)
290453Z AUTO 00000KT 10SM -RA SCT120 21/18 A3015 RMK AO2 RAB49 SLP188 P0000 T02060183 402830161

KFQD  (28.3 nm NE)   (most recent observation was updated at 29:05 UTC)
290530Z AUTO 00000KT 10SM CLR 21/15 A3014 RMK AO2 T02050152

TAF for KMRN is not available.
KHKY  (11.8 nm NW)   (most recent observation was updatred at 29:05 UTC)
290537Z 2906/3006 VRB03KT P6SM VCSH SCT050 OVC100 TEMPO 2908/2911 -SHRA BKN050 OVC080 FM291200 36007KT P6SM -SHRA OVC030 FM291900 35008KT P6SM VCSH OVC040 FM300200 02004KT P6SM VCSH BKN050


GlobalAir.com is loading additional information.
 Current Weather at MRN
68.0 F° (19.8 C°)

North winds at 0.0 mph
Pressure:
30.20 in
Humidity:
89%
Wind:
North at 0.0 mph
Dew Point:
64.4 F° (18.0 C°)
Visibility:
10.00 mi
MRN NOAA Radar




Find All Airport Services Find A Hotel Find A Rental Car Find A Golf Course Find A Restaurant $100 Hamburger



Airport Weather Forecast for KMRN

Translated METAR for KMRN (0530 UTC)
METAR:
KMRN 290530Z AUTO 32003KT 10SM -RA OVC120 19/18 A3020 RMK AO2 T01910176
Conditions at:
KMRN (Foothills Regional, NC) observed 0530 UTC 29 May 2016
Temperature:
19°C (66.2°F)
Dewpoint:
18°C (64.4°F) [RH = 93.9]
Pressure:
30.2 inches Hg (1022.7 mb)
Winds:
from the NW (320 degrees) at 3.5 mph (3 knots: 1.5 m/s)
Visibility:
10 mile(s)
Ceiling:
12,000 feet AGL
Clouds:
Overcast Skies at 12,000 feet AGL
Remarks:
site is un-manned
site is automated and HAS a precipitation sensor

Translated TAF for KHKY (Hickory Rgnl, NC) (0537 UTC)
TAF text:
KHKY 290537Z 2906/3006 VRB03KT P6SM VCSH SCT050 OVC100
Forecast period:
Sunday May 29 2016 06:00 UTC - Monday May 30 2016 06:00 UTC
Forecast type:
FROM: standard forecast or significant change
Winds:
variable wind direction at 3.5 mph (3 knots: 1.5 m/s)
Visibility:
6 or more mile(s) (9.7+ km)
Ceiling:
10,000 feet AGL
Clouds:
Scattered Clouds at 5,000 feet AGL
Overcast Skies at 10,000 feet AGL
Weather:
Moderate In Vicinity Shower(s)
TAF text:
2908/2911 -SHRA BKN050 OVC080
Forecast period:
Monday May 30 2016 08:00 UTC - Monday May 30 2016 11:00 UTC
Forecast type:
FROM: standard forecast or significant change
Winds:
Visibility:
Ceiling:
5,000 feet AGL
Clouds:
Broken Cloud Cover at 5,000 feet AGL
Overcast Skies at 8,000 feet AGL
Weather:
Light Shower(s) Rain
TAF text:
FM291200 36007KT P6SM -SHRA OVC030
Forecast period:
Sunday May 29 2016 12:00 UTC - Sunday May 29 2016 19:00 UTC
Forecast type:
FROM: standard forecast or significant change
Winds:
from the N (360 degrees) at 8.1 mph (7 knots: 3.6 m/s)
Visibility:
6 or more mile(s) (9.7+ km)
Ceiling:
3,000 feet AGL
Clouds:
Overcast Skies at 3,000 feet AGL
Weather:
Light Shower(s) Rain
TAF text:
FM291900 35008KT P6SM VCSH OVC040
Forecast period:
Sunday May 29 2016 19:00 UTC - Monday May 30 2016 02:00 UTC
Forecast type:
FROM: standard forecast or significant change
Winds:
from the N (350 degrees) at 9.2 mph (8 knots: 4.1 m/s)
Visibility:
6 or more mile(s) (9.7+ km)
Ceiling:
4,000 feet AGL
Clouds:
Overcast Skies at 4,000 feet AGL
Weather:
Moderate In Vicinity Shower(s)
TAF text:
FM300200 02004KT P6SM VCSH BKN050
Forecast period:
Monday May 30 2016 02:00 UTC - Monday May 30 2016 06:00 UTC
Forecast type:
FROM: standard forecast or significant change
Winds:
from the NNE (020 degrees) at 4.6 mph (4 knots: 2.1 m/s)
Visibility:
6 or more mile(s) (9.7+ km)
Ceiling:
5,000 feet AGL
Clouds:
Broken Cloud Cover at 5,000 feet AGL
Weather:
Moderate In Vicinity Shower(s)
FBO's on the Field
FBO Company Facility Photos Services Transportation Aviation Fuel Prices: Prices include tax
Catering Weather Repair Courtesy Rental Type 100LL JetA JetA+ MOGAS 8087
 
Foothills Aviation

This FBO has not yet been rated
FS:Shell
Last Updated: Apr-25
Login to update fuel prices
SS:
Contact Foothills AviationMore FBO Information
 
Add another FBO Facility Photos Catering Weather Repair Courtesy Rental Type 100LL JetA JetA+ MOGAS 8087
Services Transportation Aviation Fuel Prices: Prices include tax


model-print
model-print
model-print
model-print